sensor_id;sensor_type;location;lat;lon;timestamp;pressure;altitude;pressure_sealevel;temperature;humidity
40570;BME280;26270;34.428;-119.710;2023-01-30T00:02:03;100755.64;;;16.25;52.54
40570;BME280;26270;34.428;-119.710;2023-01-30T00:04:32;100755.51;;;16.05;51.85
40570;BME280;26270;34.428;-119.710;2023-01-30T00:07:00;100753.57;;;15.87;52.73
40570;BME280;26270;34.428;-119.710;2023-01-30T00:09:27;100751.85;;;15.95;53.88
40570;BME280;26270;34.428;-119.710;2023-01-30T00:11:55;100753.04;;;15.97;54.66
40570;BME280;26270;34.428;-119.710;2023-01-30T00:14:23;100751.86;;;15.98;54.66
40570;BME280;26270;34.428;-119.710;2023-01-30T00:16:51;100753.62;;;15.79;55.10
40570;BME280;26270;34.428;-119.710;2023-01-30T00:19:20;100761.38;;;15.46;55.79
40570;BME280;26270;34.428;-119.710;2023-01-30T00:21:48;100760.43;;;15.81;55.63
40570;BME280;26270;34.428;-119.710;2023-01-30T00:24:16;100760.24;;;15.84;54.63
40570;BME280;26270;34.428;-119.710;2023-01-30T00:26:44;100769.98;;;15.60;55.12
40570;BME280;26270;34.428;-119.710;2023-01-30T00:29:13;100766.71;;;15.56;53.92
40570;BME280;26270;34.428;-119.710;2023-01-30T00:31:41;100769.63;;;15.33;54.83
40570;BME280;26270;34.428;-119.710;2023-01-30T00:34:10;100774.45;;;15.50;54.05
40570;BME280;26270;34.428;-119.710;2023-01-30T00:36:37;100774.88;;;15.41;54.49
40570;BME280;26270;34.428;-119.710;2023-01-30T00:39:06;100777.86;;;15.25;54.80
40570;BME280;26270;34.428;-119.710;2023-01-30T00:41:34;100780.41;;;15.09;54.82
40570;BME280;26270;34.428;-119.710;2023-01-30T00:44:02;100782.66;;;15.00;55.75
40570;BME280;26270;34.428;-119.710;2023-01-30T00:46:32;100784.16;;;14.88;56.07
40570;BME280;26270;34.428;-119.710;2023-01-30T00:49:00;100784.19;;;14.71;56.84
40570;BME280;26270;34.428;-119.710;2023-01-30T00:51:28;100790.93;;;14.72;56.89
40570;BME280;26270;34.428;-119.710;2023-01-30T00:53:56;100788.51;;;14.47;57.51
40570;BME280;26270;34.428;-119.710;2023-01-30T00:56:24;100788.48;;;14.42;58.06
40570;BME280;26270;34.428;-119.710;2023-01-30T00:58:53;100789.58;;;14.46;58.51
40570;BME280;26270;34.428;-119.710;2023-01-30T01:01:21;100793.86;;;14.52;58.59
40570;BME280;26270;34.428;-119.710;2023-01-30T01:03:49;100796.21;;;14.42;58.72
40570;BME280;26270;34.428;-119.710;2023-01-30T01:06:17;100801.22;;;14.16;59.43
40570;BME280;26270;34.428;-119.710;2023-01-30T01:08:45;100799.08;;;14.20;59.77
40570;BME280;26270;34.428;-119.710;2023-01-30T01:11:13;100802.71;;;14.06;60.34
40570;BME280;26270;34.428;-119.710;2023-01-30T01:13:42;100794.08;;;14.23;59.26
40570;BME280;26270;34.428;-119.710;2023-01-30T01:16:10;100794.08;;;14.31;60.22
40570;BME280;26270;34.428;-119.710;2023-01-30T01:18:37;100794.92;;;13.96;60.79
40570;BME280;26270;34.428;-119.710;2023-01-30T01:21:05;100795.56;;;14.05;60.04
40570;BME280;26270;34.428;-119.710;2023-01-30T01:23:33;100794.97;;;14.11;60.01
40570;BME280;26270;34.428;-119.710;2023-01-30T01:26:01;100800.02;;;14.10;60.81
40570;BME280;26270;34.428;-119.710;2023-01-30T01:28:30;100802.90;;;13.94;61.36
40570;BME280;26270;34.428;-119.710;2023-01-30T01:30:58;100800.84;;;13.98;61.26
40570;BME280;26270;34.428;-119.710;2023-01-30T01:33:27;100802.02;;;13.81;61.58
40570;BME280;26270;34.428;-119.710;2023-01-30T01:35:56;100802.06;;;13.91;61.38
40570;BME280;26270;34.428;-119.710;2023-01-30T01:38:24;100803.46;;;13.98;60.67
40570;BME280;26270;34.428;-119.710;2023-01-30T01:40:53;100804.40;;;14.05;60.77
40570;BME280;26270;34.428;-119.710;2023-01-30T01:43:23;100805.86;;;14.07;60.34
40570;BME280;26270;34.428;-119.710;2023-01-30T01:45:54;100809.97;;;13.85;61.18
40570;BME280;26270;34.428;-119.710;2023-01-30T01:48:27;100810.95;;;14.04;60.57
40570;BME280;26270;34.428;-119.710;2023-01-30T01:50:59;100808.14;;;14.08;60.34
40570;BME280;26270;34.428;-119.710;2023-01-30T01:53:31;100807.06;;;14.01;60.33
40570;BME280;26270;34.428;-119.710;2023-01-30T01:56:04;100808.96;;;14.02;60.40
40570;BME280;26270;34.428;-119.710;2023-01-30T01:58:36;100807.12;;;14.04;60.78
40570;BME280;26270;34.428;-119.710;2023-01-30T02:01:06;100804.87;;;14.16;59.90
40570;BME280;26270;34.428;-119.710;2023-01-30T02:03:38;100805.15;;;13.92;60.38
40570;BME280;26270;34.428;-119.710;2023-01-30T02:06:09;100805.97;;;14.09;60.36
40570;BME280;26270;34.428;-119.710;2023-01-30T02:08:40;100806.99;;;14.08;60.59
40570;BME280;26270;34.428;-119.710;2023-01-30T02:11:15;100804.28;;;14.02;60.66
40570;BME280;26270;34.428;-119.710;2023-01-30T02:13:44;100801.54;;;14.07;60.77
40570;BME280;26270;34.428;-119.710;2023-01-30T02:16:13;100801.26;;;14.08;60.73
40570;BME280;26270;34.428;-119.710;2023-01-30T02:18:43;100796.54;;;14.10;60.47
40570;BME280;26270;34.428;-119.710;2023-01-30T02:21:36;100795.11;;;14.18;60.80
40570;BME280;26270;34.428;-119.710;2023-01-30T02:24:51;100793.53;;;14.25;60.53
40570;BME280;26270;34.428;-119.710;2023-01-30T02:27:32;100788.46;;;14.20;60.29
40570;BME280;26270;34.428;-119.710;2023-01-30T02:30:20;100788.88;;;14.38;60.36
40570;BME280;26270;34.428;-119.710;2023-01-30T02:33:06;100789.92;;;14.41;60.36
40570;BME280;26270;34.428;-119.710;2023-01-30T02:35:43;100790.48;;;14.22;60.82
40570;BME280;26270;34.428;-119.710;2023-01-30T02:38:23;100792.93;;;14.08;61.03
40570;BME280;26270;34.428;-119.710;2023-01-30T02:41:06;100792.95;;;14.09;61.07
40570;BME280;26270;34.428;-119.710;2023-01-30T02:43:45;100796.71;;;14.10;60.74
40570;BME280;26270;34.428;-119.710;2023-01-30T02:46:23;100794.71;;;14.27;60.73
40570;BME280;26270;34.428;-119.710;2023-01-30T02:48:57;100794.03;;;13.95;61.40
40570;BME280;26270;34.428;-119.710;2023-01-30T02:51:29;100793.56;;;14.18;61.00
40570;BME280;26270;34.428;-119.710;2023-01-30T02:53:59;100787.76;;;14.23;60.80
40570;BME280;26270;34.428;-119.710;2023-01-30T02:56:28;100790.27;;;14.22;61.16
40570;BME280;26270;34.428;-119.710;2023-01-30T02:58:59;100789.00;;;14.04;60.94
40570;BME280;26270;34.428;-119.710;2023-01-30T03:01:44;100785.48;;;14.11;61.41
40570;BME280;26270;34.428;-119.710;2023-01-30T03:04:30;100781.71;;;13.87;61.68
40570;BME280;26270;34.428;-119.710;2023-01-30T03:07:14;100784.82;;;13.93;61.54
40570;BME280;26270;34.428;-119.710;2023-01-30T03:09:50;100781.85;;;13.86;61.52
40570;BME280;26270;34.428;-119.710;2023-01-30T03:12:28;100777.11;;;14.01;61.52
40570;BME280;26270;34.428;-119.710;2023-01-30T03:15:07;100773.59;;;13.86;61.62
40570;BME280;26270;34.428;-119.710;2023-01-30T03:17:41;100774.51;;;13.84;61.75
40570;BME280;26270;34.428;-119.710;2023-01-30T03:20:11;100774.07;;;13.91;61.73
40570;BME280;26270;34.428;-119.710;2023-01-30T03:22:40;100780.64;;;13.75;62.15
40570;BME280;26270;34.428;-119.710;2023-01-30T03:25:09;100779.46;;;13.89;62.01
40570;BME280;26270;34.428;-119.710;2023-01-30T03:27:37;100782.03;;;13.79;62.39
40570;BME280;26270;34.428;-119.710;2023-01-30T03:30:08;100783.12;;;13.81;62.21
40570;BME280;26270;34.428;-119.710;2023-01-30T03:32:36;100782.12;;;13.78;61.99
40570;BME280;26270;34.428;-119.710;2023-01-30T03:35:04;100783.16;;;13.89;61.79
40570;BME280;26270;34.428;-119.710;2023-01-30T03:37:32;100781.21;;;13.96;61.25
40570;BME280;26270;34.428;-119.710;2023-01-30T03:40:00;100784.05;;;13.90;61.66
40570;BME280;26270;34.428;-119.710;2023-01-30T03:42:29;100785.58;;;13.98;61.35
40570;BME280;26270;34.428;-119.710;2023-01-30T03:44:56;100786.50;;;13.90;61.16
40570;BME280;26270;34.428;-119.710;2023-01-30T03:47:24;100789.66;;;14.04;60.92
40570;BME280;26270;34.428;-119.710;2023-01-30T03:49:53;100788.79;;;14.12;61.29
40570;BME280;26270;34.428;-119.710;2023-01-30T03:52:21;100791.49;;;14.01;61.70
40570;BME280;26270;34.428;-119.710;2023-01-30T03:54:50;100792.32;;;14.00;61.68
40570;BME280;26270;34.428;-119.710;2023-01-30T03:57:18;100795.00;;;14.12;61.20
40570;BME280;26270;34.428;-119.710;2023-01-30T03:59:45;100796.68;;;14.07;61.20
40570;BME280;26270;34.428;-119.710;2023-01-30T04:02:13;100796.35;;;14.16;61.55
40570;BME280;26270;34.428;-119.710;2023-01-30T04:04:41;100794.17;;;14.11;61.53
40570;BME280;26270;34.428;-119.710;2023-01-30T04:07:09;100792.89;;;13.95;61.61
40570;BME280;26270;34.428;-119.710;2023-01-30T04:09:37;100792.48;;;14.14;61.37
40570;BME280;26270;34.428;-119.710;2023-01-30T04:12:06;100789.16;;;14.21;61.11
40570;BME280;26270;34.428;-119.710;2023-01-30T04:14:34;100788.10;;;13.95;61.62
40570;BME280;26270;34.428;-119.710;2023-01-30T04:17:01;100790.81;;;14.03;61.52
40570;BME280;26270;34.428;-119.710;2023-01-30T04:19:29;100796.06;;;13.60;62.43
40570;BME280;26270;34.428;-119.710;2023-01-30T04:21:57;100798.12;;;13.87;62.35
40570;BME280;26270;34.428;-119.710;2023-01-30T04:24:25;100798.15;;;13.86;62.62
40570;BME280;26270;34.428;-119.710;2023-01-30T04:26:53;100798.93;;;14.05;62.57
40570;BME280;26270;34.428;-119.710;2023-01-30T04:29:20;100800.68;;;14.05;62.68
40570;BME280;26270;34.428;-119.710;2023-01-30T04:31:49;100805.16;;;13.97;63.06
40570;BME280;26270;34.428;-119.710;2023-01-30T04:34:17;100808.95;;;14.18;61.86
40570;BME280;26270;34.428;-119.710;2023-01-30T04:36:46;100809.65;;;14.17;61.92
40570;BME280;26270;34.428;-119.710;2023-01-30T04:39:14;100810.62;;;14.11;62.46
40570;BME280;26270;34.428;-119.710;2023-01-30T04:41:43;100812.44;;;14.24;62.24
40570;BME280;26270;34.428;-119.710;2023-01-30T04:44:11;100811.51;;;14.26;61.61
40570;BME280;26270;34.428;-119.710;2023-01-30T04:46:40;100815.29;;;14.14;61.71
40570;BME280;26270;34.428;-119.710;2023-01-30T04:49:09;100817.32;;;14.37;61.37
40570;BME280;26270;34.428;-119.710;2023-01-30T04:51:37;100817.51;;;14.26;61.54
40570;BME280;26270;34.428;-119.710;2023-01-30T04:54:06;100822.39;;;14.41;62.18
40570;BME280;26270;34.428;-119.710;2023-01-30T04:56:34;100816.97;;;14.32;62.49
40570;BME280;26270;34.428;-119.710;2023-01-30T04:59:03;100823.74;;;14.13;62.54
40570;BME280;26270;34.428;-119.710;2023-01-30T05:03:19;100823.40;;;13.94;63.15
40570;BME280;26270;34.428;-119.710;2023-01-30T05:05:47;100822.88;;;13.93;63.46
40570;BME280;26270;34.428;-119.710;2023-01-30T05:08:16;100826.07;;;13.92;63.96
40570;BME280;26270;34.428;-119.710;2023-01-30T05:10:45;100824.54;;;13.75;64.49
40570;BME280;26270;34.428;-119.710;2023-01-30T05:13:14;100824.16;;;13.55;65.20
40570;BME280;26270;34.428;-119.710;2023-01-30T05:15:42;100827.75;;;13.64;65.62
40570;BME280;26270;34.428;-119.710;2023-01-30T05:18:11;100827.34;;;13.58;65.70
40570;BME280;26270;34.428;-119.710;2023-01-30T05:20:40;100828.87;;;13.63;65.86
40570;BME280;26270;34.428;-119.710;2023-01-30T05:23:08;100831.37;;;13.58;65.84
40570;BME280;26270;34.428;-119.710;2023-01-30T05:25:36;100829.90;;;13.57;66.11
40570;BME280;26270;34.428;-119.710;2023-01-30T05:28:05;100831.44;;;13.54;65.96
40570;BME280;26270;34.428;-119.710;2023-01-30T05:30:33;100830.71;;;13.32;66.03
40570;BME280;26270;34.428;-119.710;2023-01-30T05:33:02;100833.21;;;13.30;65.81
40570;BME280;26270;34.428;-119.710;2023-01-30T05:35:30;100832.42;;;13.24;65.33
40570;BME280;26270;34.428;-119.710;2023-01-30T05:37:59;100834.90;;;13.41;65.13
40570;BME280;26270;34.428;-119.710;2023-01-30T05:40:27;100834.90;;;13.27;65.35
40570;BME280;26270;34.428;-119.710;2023-01-30T05:42:55;100839.27;;;13.20;65.52
40570;BME280;26270;34.428;-119.710;2023-01-30T05:45:24;100840.08;;;12.99;65.55
40570;BME280;26270;34.428;-119.710;2023-01-30T05:47:52;100843.89;;;13.02;65.88
40570;BME280;26270;34.428;-119.710;2023-01-30T05:50:21;100845.78;;;13.01;66.04
40570;BME280;26270;34.428;-119.710;2023-01-30T05:52:49;100843.87;;;12.98;65.99
40570;BME280;26270;34.428;-119.710;2023-01-30T05:55:18;100849.28;;;12.97;65.70
40570;BME280;26270;34.428;-119.710;2023-01-30T05:57:46;100850.25;;;13.02;65.52
40570;BME280;26270;34.428;-119.710;2023-01-30T06:00:16;100852.50;;;12.88;66.19
40570;BME280;26270;34.428;-119.710;2023-01-30T06:02:44;100854.45;;;12.95;66.54
40570;BME280;26270;34.428;-119.710;2023-01-30T06:05:12;100858.30;;;12.90;66.80
40570;BME280;26270;34.428;-119.710;2023-01-30T06:07:40;100856.53;;;13.03;66.73
40570;BME280;26270;34.428;-119.710;2023-01-30T06:10:09;100855.58;;;12.92;67.23
40570;BME280;26270;34.428;-119.710;2023-01-30T06:12:37;100860.35;;;13.16;66.18
40570;BME280;26270;34.428;-119.710;2023-01-30T06:15:06;100861.83;;;13.16;66.03
40570;BME280;26270;34.428;-119.710;2023-01-30T06:17:36;100861.06;;;13.04;66.20
40570;BME280;26270;34.428;-119.710;2023-01-30T06:20:04;100862.05;;;13.26;66.05
40570;BME280;26270;34.428;-119.710;2023-01-30T06:22:33;100863.06;;;13.08;66.03
40570;BME280;26270;34.428;-119.710;2023-01-30T06:25:01;100863.13;;;13.15;65.84
40570;BME280;26270;34.428;-119.710;2023-01-30T06:27:29;100859.33;;;13.02;66.02
40570;BME280;26270;34.428;-119.710;2023-01-30T06:29:57;100859.43;;;13.02;66.72
40570;BME280;26270;34.428;-119.710;2023-01-30T06:32:25;100860.68;;;13.19;66.34
40570;BME280;26270;34.428;-119.710;2023-01-30T06:34:52;100864.81;;;13.11;66.39
40570;BME280;26270;34.428;-119.710;2023-01-30T06:37:20;100867.30;;;13.12;66.43
40570;BME280;26270;34.428;-119.710;2023-01-30T06:39:48;100868.99;;;13.15;66.34
40570;BME280;26270;34.428;-119.710;2023-01-30T06:42:17;100871.00;;;13.10;66.17
40570;BME280;26270;34.428;-119.710;2023-01-30T06:44:44;100871.81;;;13.04;66.57
40570;BME280;26270;34.428;-119.710;2023-01-30T06:47:13;100873.58;;;12.88;66.63
40570;BME280;26270;34.428;-119.710;2023-01-30T06:49:41;100872.07;;;12.85;66.70
40570;BME280;26270;34.428;-119.710;2023-01-30T06:52:09;100871.08;;;12.91;66.75
40570;BME280;26270;34.428;-119.710;2023-01-30T06:54:38;100870.55;;;12.63;67.66
40570;BME280;26270;34.428;-119.710;2023-01-30T06:57:06;100873.24;;;12.76;67.01
40570;BME280;26270;34.428;-119.710;2023-01-30T06:59:34;100873.96;;;12.59;66.93
40570;BME280;26270;34.428;-119.710;2023-01-30T07:02:01;100873.77;;;12.59;66.70
40570;BME280;26270;34.428;-119.710;2023-01-30T07:04:29;100879.01;;;12.45;66.22
40570;BME280;26270;34.428;-119.710;2023-01-30T07:06:57;100885.10;;;12.38;66.19
40570;BME280;26270;34.428;-119.710;2023-01-30T07:09:25;100883.24;;;12.43;66.15
40570;BME280;26270;34.428;-119.710;2023-01-30T07:11:53;100884.69;;;12.54;66.30
40570;BME280;26270;34.428;-119.710;2023-01-30T07:14:21;100882.49;;;12.59;66.09
40570;BME280;26270;34.428;-119.710;2023-01-30T07:16:49;100881.49;;;12.68;66.26
40570;BME280;26270;34.428;-119.710;2023-01-30T07:19:18;100883.36;;;12.65;66.11
40570;BME280;26270;34.428;-119.710;2023-01-30T07:21:46;100886.89;;;12.47;65.91
40570;BME280;26270;34.428;-119.710;2023-01-30T07:24:14;100883.91;;;12.38;65.85
40570;BME280;26270;34.428;-119.710;2023-01-30T07:26:42;100881.23;;;12.29;66.14
40570;BME280;26270;34.428;-119.710;2023-01-30T07:29:10;100880.33;;;12.32;66.28
40570;BME280;26270;34.428;-119.710;2023-01-30T07:31:39;100885.16;;;12.35;66.39
40570;BME280;26270;34.428;-119.710;2023-01-30T07:34:07;100884.89;;;12.48;66.17
40570;BME280;26270;34.428;-119.710;2023-01-30T07:36:34;100884.21;;;12.58;66.22
40570;BME280;26270;34.428;-119.710;2023-01-30T07:39:02;100884.41;;;12.55;66.03
40570;BME280;26270;34.428;-119.710;2023-01-30T07:41:30;100887.95;;;12.65;66.11
40570;BME280;26270;34.428;-119.710;2023-01-30T07:43:57;100884.68;;;12.66;65.95
40570;BME280;26270;34.428;-119.710;2023-01-30T07:46:25;100884.67;;;12.63;65.72
40570;BME280;26270;34.428;-119.710;2023-01-30T07:48:54;100880.03;;;12.55;65.67
40570;BME280;26270;34.428;-119.710;2023-01-30T07:51:21;100882.41;;;12.46;65.46
40570;BME280;26270;34.428;-119.710;2023-01-30T07:53:50;100882.26;;;12.57;65.49
40570;BME280;26270;34.428;-119.710;2023-01-30T07:56:18;100883.19;;;12.54;65.44
40570;BME280;26270;34.428;-119.710;2023-01-30T07:58:47;100885.83;;;12.42;65.52
40570;BME280;26270;34.428;-119.710;2023-01-30T08:01:14;100884.47;;;12.49;65.69
40570;BME280;26270;34.428;-119.710;2023-01-30T08:03:43;100889.14;;;12.45;65.97
40570;BME280;26270;34.428;-119.710;2023-01-30T08:06:11;100889.02;;;12.27;65.93
40570;BME280;26270;34.428;-119.710;2023-01-30T08:08:39;100885.39;;;12.32;66.19
40570;BME280;26270;34.428;-119.710;2023-01-30T08:11:08;100887.88;;;12.33;66.11
40570;BME280;26270;34.428;-119.710;2023-01-30T08:13:36;100888.56;;;12.38;65.95
40570;BME280;26270;34.428;-119.710;2023-01-30T08:16:05;100890.46;;;12.41;66.00
40570;BME280;26270;34.428;-119.710;2023-01-30T08:18:34;100890.00;;;12.46;65.33
40570;BME280;26270;34.428;-119.710;2023-01-30T08:21:05;100885.62;;;12.45;65.38
40570;BME280;26270;34.428;-119.710;2023-01-30T08:23:33;100885.47;;;12.35;65.90
40570;BME280;26270;34.428;-119.710;2023-01-30T08:26:03;100884.99;;;12.28;66.25
40570;BME280;26270;34.428;-119.710;2023-01-30T08:28:32;100887.75;;;12.29;65.83
40570;BME280;26270;34.428;-119.710;2023-01-30T08:31:00;100890.78;;;12.20;66.32
40570;BME280;26270;34.428;-119.710;2023-01-30T08:33:29;100891.59;;;11.97;66.56
40570;BME280;26270;34.428;-119.710;2023-01-30T08:35:57;100887.70;;;12.28;65.67
40570;BME280;26270;34.428;-119.710;2023-01-30T08:38:25;100889.45;;;12.34;65.80
40570;BME280;26270;34.428;-119.710;2023-01-30T08:40:52;100890.61;;;12.31;65.56
40570;BME280;26270;34.428;-119.710;2023-01-30T08:43:20;100890.54;;;12.38;65.79
40570;BME280;26270;34.428;-119.710;2023-01-30T08:45:49;100891.06;;;12.34;66.06
40570;BME280;26270;34.428;-119.710;2023-01-30T08:48:19;100887.20;;;12.23;66.17
40570;BME280;26270;34.428;-119.710;2023-01-30T08:50:46;100882.34;;;12.33;66.11
40570;BME280;26270;34.428;-119.710;2023-01-30T08:53:14;100883.91;;;12.41;66.08
40570;BME280;26270;34.428;-119.710;2023-01-30T08:55:43;100880.17;;;12.35;66.29
40570;BME280;26270;34.428;-119.710;2023-01-30T08:58:11;100881.68;;;12.49;65.58
40570;BME280;26270;34.428;-119.710;2023-01-30T09:00:38;100886.67;;;12.41;65.38
40570;BME280;26270;34.428;-119.710;2023-01-30T09:03:06;100887.40;;;12.43;65.33
40570;BME280;26270;34.428;-119.710;2023-01-30T09:05:35;100889.24;;;12.51;64.85
40570;BME280;26270;34.428;-119.710;2023-01-30T09:08:02;100887.20;;;12.54;64.44
40570;BME280;26270;34.428;-119.710;2023-01-30T09:10:31;100889.03;;;12.33;64.41
40570;BME280;26270;34.428;-119.710;2023-01-30T09:12:58;100888.87;;;12.41;64.57
40570;BME280;26270;34.428;-119.710;2023-01-30T09:15:26;100889.09;;;12.38;64.25
40570;BME280;26270;34.428;-119.710;2023-01-30T09:17:54;100889.10;;;12.44;64.08
40570;BME280;26270;34.428;-119.710;2023-01-30T09:20:22;100890.92;;;12.11;64.74
40570;BME280;26270;34.428;-119.710;2023-01-30T09:22:51;100888.76;;;12.03;64.82
40570;BME280;26270;34.428;-119.710;2023-01-30T09:25:19;100891.09;;;12.22;64.43
40570;BME280;26270;34.428;-119.710;2023-01-30T09:27:48;100889.21;;;12.37;64.61
40570;BME280;26270;34.428;-119.710;2023-01-30T09:30:17;100882.68;;;12.39;64.20
40570;BME280;26270;34.428;-119.710;2023-01-30T09:32:45;100884.48;;;12.30;64.52
40570;BME280;26270;34.428;-119.710;2023-01-30T09:35:13;100884.24;;;12.22;64.42
40570;BME280;26270;34.428;-119.710;2023-01-30T09:37:47;100885.84;;;12.37;64.46
40570;BME280;26270;34.428;-119.710;2023-01-30T09:40:17;100887.59;;;12.27;64.66
40570;BME280;26270;34.428;-119.710;2023-01-30T09:43:01;100885.69;;;12.12;64.90
40570;BME280;26270;34.428;-119.710;2023-01-30T09:45:40;100888.81;;;12.15;65.17
40570;BME280;26270;34.428;-119.710;2023-01-30T09:48:16;100886.82;;;12.00;65.43
40570;BME280;26270;34.428;-119.710;2023-01-30T09:51:04;100887.50;;;12.05;65.73
40570;BME280;26270;34.428;-119.710;2023-01-30T09:53:42;100889.64;;;12.01;64.72
40570;BME280;26270;34.428;-119.710;2023-01-30T09:56:14;100895.41;;;12.23;65.31
40570;BME280;26270;34.428;-119.710;2023-01-30T09:58:47;100898.79;;;12.11;65.29
40570;BME280;26270;34.428;-119.710;2023-01-30T10:01:24;100901.12;;;12.15;65.44
40570;BME280;26270;34.428;-119.710;2023-01-30T10:04:02;100898.93;;;12.38;65.72
40570;BME280;26270;34.428;-119.710;2023-01-30T10:06:38;100904.12;;;12.17;65.82
40570;BME280;26270;34.428;-119.710;2023-01-30T10:09:14;100904.02;;;12.18;65.82
40570;BME280;26270;34.428;-119.710;2023-01-30T10:11:54;100907.82;;;12.12;66.38
40570;BME280;26270;34.428;-119.710;2023-01-30T10:14:43;100909.88;;;12.30;66.08
40570;BME280;26270;34.428;-119.710;2023-01-30T10:17:28;100906.18;;;12.22;66.54
40570;BME280;26270;34.428;-119.710;2023-01-30T10:20:13;100907.69;;;12.22;66.77
40570;BME280;26270;34.428;-119.710;2023-01-30T10:22:52;100911.49;;;12.34;66.90
40570;BME280;26270;34.428;-119.710;2023-01-30T10:25:30;100913.51;;;12.26;67.06
40570;BME280;26270;34.428;-119.710;2023-01-30T10:28:05;100916.95;;;12.21;67.69
40570;BME280;26270;34.428;-119.710;2023-01-30T10:30:34;100916.66;;;12.09;68.34
40570;BME280;26270;34.428;-119.710;2023-01-30T10:33:04;100915.78;;;12.10;69.19
40570;BME280;26270;34.428;-119.710;2023-01-30T10:35:37;100915.52;;;12.02;70.35
40570;BME280;26270;34.428;-119.710;2023-01-30T10:38:16;100916.51;;;11.79;70.54
40570;BME280;26270;34.428;-119.710;2023-01-30T10:40:54;100915.76;;;11.74;71.32
40570;BME280;26270;34.428;-119.710;2023-01-30T10:43:28;100918.37;;;11.62;71.22
40570;BME280;26270;34.428;-119.710;2023-01-30T10:46:03;100919.14;;;11.68;71.17
40570;BME280;26270;34.428;-119.710;2023-01-30T10:48:51;100918.41;;;11.69;71.65
40570;BME280;26270;34.428;-119.710;2023-01-30T10:51:31;100915.87;;;11.68;72.06
40570;BME280;26270;34.428;-119.710;2023-01-30T10:54:06;100914.26;;;11.77;72.27
40570;BME280;26270;34.428;-119.710;2023-01-30T10:56:43;100914.79;;;11.71;72.48
40570;BME280;26270;34.428;-119.710;2023-01-30T10:59:23;100916.84;;;11.78;72.24
40570;BME280;26270;34.428;-119.710;2023-01-30T11:01:59;100919.99;;;11.58;71.34
40570;BME280;26270;34.428;-119.710;2023-01-30T11:04:37;100920.22;;;11.68;72.45
40570;BME280;26270;34.428;-119.710;2023-01-30T11:07:12;100922.31;;;11.62;72.40
40570;BME280;26270;34.428;-119.710;2023-01-30T11:09:43;100925.68;;;11.75;72.37
40570;BME280;26270;34.428;-119.710;2023-01-30T11:12:12;100928.87;;;11.74;72.10
40570;BME280;26270;34.428;-119.710;2023-01-30T11:14:57;100928.55;;;11.84;71.80
40570;BME280;26270;34.428;-119.710;2023-01-30T11:17:33;100922.66;;;11.67;71.76
40570;BME280;26270;34.428;-119.710;2023-01-30T11:20:06;100919.99;;;11.46;71.80
40570;BME280;26270;34.428;-119.710;2023-01-30T11:22:35;100921.92;;;11.65;72.39
40570;BME280;26270;34.428;-119.710;2023-01-30T11:25:12;100924.17;;;11.81;72.18
40570;BME280;26270;34.428;-119.710;2023-01-30T11:27:41;100927.61;;;11.60;72.21
40570;BME280;26270;34.428;-119.710;2023-01-30T11:30:14;100927.77;;;11.84;72.34
40570;BME280;26270;34.428;-119.710;2023-01-30T11:32:43;100930.16;;;11.81;71.58
40570;BME280;26270;34.428;-119.710;2023-01-30T11:35:22;100933.85;;;11.69;72.74
40570;BME280;26270;34.428;-119.710;2023-01-30T11:37:51;100938.82;;;11.54;73.03
40570;BME280;26270;34.428;-119.710;2023-01-30T11:40:25;100937.65;;;11.52;73.14
40570;BME280;26270;34.428;-119.710;2023-01-30T11:43:02;100941.68;;;11.62;72.28
40570;BME280;26270;34.428;-119.710;2023-01-30T11:45:36;100938.30;;;11.77;72.46
40570;BME280;26270;34.428;-119.710;2023-01-30T11:48:11;100935.94;;;11.70;72.89
40570;BME280;26270;34.428;-119.710;2023-01-30T11:50:42;100936.73;;;11.51;72.54
40570;BME280;26270;34.428;-119.710;2023-01-30T11:53:20;100938.53;;;11.52;72.87
40570;BME280;26270;34.428;-119.710;2023-01-30T11:55:56;100936.73;;;11.74;72.49
40570;BME280;26270;34.428;-119.710;2023-01-30T11:58:29;100935.94;;;11.65;72.08
40570;BME280;26270;34.428;-119.710;2023-01-30T12:00:59;100942.21;;;11.83;72.44
40570;BME280;26270;34.428;-119.710;2023-01-30T12:03:28;100948.01;;;11.48;72.59
40570;BME280;26270;34.428;-119.710;2023-01-30T12:05:58;100948.38;;;11.60;71.46
40570;BME280;26270;34.428;-119.710;2023-01-30T12:08:34;100945.41;;;11.65;71.74
40570;BME280;26270;34.428;-119.710;2023-01-30T12:11:03;100947.02;;;11.62;73.18
40570;BME280;26270;34.428;-119.710;2023-01-30T12:13:51;100948.56;;;11.62;72.70
40570;BME280;26270;34.428;-119.710;2023-01-30T12:16:25;100945.70;;;11.40;70.93
40570;BME280;26270;34.428;-119.710;2023-01-30T12:19:00;100950.51;;;11.61;72.07
40570;BME280;26270;34.428;-119.710;2023-01-30T12:21:38;100949.59;;;11.51;72.39
40570;BME280;26270;34.428;-119.710;2023-01-30T12:24:18;100950.67;;;11.31;71.80
40570;BME280;26270;34.428;-119.710;2023-01-30T12:26:50;100947.97;;;11.55;72.00
40570;BME280;26270;34.428;-119.710;2023-01-30T12:29:26;100948.74;;;11.59;72.34
40570;BME280;26270;34.428;-119.710;2023-01-30T12:32:04;100946.68;;;11.49;71.76
40570;BME280;26270;34.428;-119.710;2023-01-30T12:34:33;100941.98;;;11.52;72.41
40570;BME280;26270;34.428;-119.710;2023-01-30T12:37:10;100944.22;;;11.34;72.37
40570;BME280;26270;34.428;-119.710;2023-01-30T12:39:55;100946.68;;;11.28;71.95
40570;BME280;26270;34.428;-119.710;2023-01-30T12:42:45;100948.32;;;11.59;71.78